createdAt,value
2023-01-25T01:06:23.448Z,0.08
2023-01-25T01:07:34.528Z,0.05
2023-01-25T01:08:45.138Z,0.14
2023-01-25T01:09:53.649Z,0.21
2023-01-25T01:11:05.174Z,0.33
2023-01-25T01:12:14.787Z,0.48
2023-01-25T01:13:24.392Z,0.64
2023-01-25T01:15:29.855Z,0.81
2023-01-25T01:16:39.079Z,0.96
2023-01-25T01:17:47.953Z,1.19
2023-01-25T01:18:58.724Z,1.35
2023-01-25T01:21:25.504Z,1.75
2023-01-25T01:22:35.123Z,1.76
2023-01-25T01:23:45.314Z,1.83
2023-01-25T01:24:54.356Z,1.94
2023-01-25T01:26:07.535Z,2.00
2023-01-25T01:27:16.588Z,1.99
2023-01-25T01:28:25.532Z,1.92
2023-01-25T01:29:35.775Z,1.86
2023-01-25T01:30:45.410Z,1.81
2023-01-25T01:31:56.932Z,1.77
2023-01-25T01:33:08.393Z,1.73
2023-01-25T01:34:19.473Z,1.69
2023-01-25T01:35:32.401Z,1.65
2023-01-25T01:37:58.635Z,1.65
2023-01-25T01:39:09.015Z,1.52
2023-01-25T01:40:21.711Z,1.51
2023-01-25T01:41:31.863Z,1.50
2023-01-25T01:43:05.770Z,1.49
2023-01-25T01:44:23.186Z,1.48
2023-01-25T01:45:53.162Z,1.45
2023-01-25T01:47:05.450Z,1.39
2023-01-25T01:51:50.580Z,1.41
2023-01-25T01:53:02.445Z,1.25
2023-01-25T01:54:33.157Z,1.18
2023-01-25T01:57:02.786Z,1.25
2023-01-25T01:58:12.277Z,1.14
2023-01-25T02:00:42.256Z,1.18
2023-01-25T02:01:51.325Z,1.05
2023-01-25T02:03:02.301Z,1.06
2023-01-25T02:04:14.682Z,1.06
2023-01-25T02:05:28.762Z,1.06
2023-01-25T02:06:47.467Z,1.07
2023-01-25T02:08:01.130Z,1.04
2023-01-25T02:09:12.271Z,1.02
2023-01-25T02:10:23.191Z,1.01
2023-01-25T02:11:35.174Z,1.00
2023-01-25T02:12:45.884Z,0.99
2023-01-25T02:13:57.775Z,0.91
2023-01-25T02:15:08.588Z,0.88
2023-01-25T02:16:21.171Z,0.85
2023-01-25T02:17:36.019Z,0.84
2023-01-25T02:18:45.140Z,0.83
2023-01-25T02:20:00.956Z,0.83
2023-01-25T02:21:10.656Z,0.85
2023-01-25T02:22:23.381Z,0.87
2023-01-25T02:25:21.151Z,0.98
2023-01-25T02:26:30.875Z,0.88
2023-01-25T02:27:45.032Z,0.90
2023-01-25T02:29:06.237Z,0.89
2023-01-25T02:30:17.492Z,0.91
2023-01-25T02:31:26.555Z,0.95
2023-01-25T02:32:35.987Z,0.97
2023-01-25T02:33:46.320Z,0.98
2023-01-25T02:36:13.917Z,1.09
2023-01-25T02:37:22.709Z,0.99
2023-01-25T02:39:58.049Z,1.09
2023-01-25T02:41:18.616Z,0.97
2023-01-25T02:42:31.561Z,1.00
2023-01-25T02:43:42.673Z,1.02
2023-01-25T02:46:28.026Z,1.14
2023-01-25T02:47:37.600Z,1.06
2023-01-25T02:48:46.789Z,1.06
2023-01-25T02:49:55.909Z,1.04
2023-01-25T02:52:23.194Z,1.13
2023-01-25T02:53:33.031Z,0.97
2023-01-25T02:54:42.665Z,0.93
2023-01-25T02:55:52.848Z,0.92
2023-01-25T02:57:03.156Z,0.92
2023-01-25T02:58:14.038Z,0.94
2023-01-25T02:59:24.992Z,0.95
2023-01-25T03:00:36.112Z,0.98
2023-01-25T03:01:46.343Z,0.96
2023-01-25T03:02:56.352Z,0.92
2023-01-25T03:04:06.479Z,0.93
2023-01-25T03:05:17.307Z,0.91
2023-01-25T03:06:27.041Z,0.88
2023-01-25T03:07:37.157Z,0.85
2023-01-25T03:08:48.264Z,0.84
2023-01-25T03:09:57.024Z,0.85
2023-01-25T03:11:07.386Z,0.87
2023-01-25T03:12:16.995Z,0.90
2023-01-25T03:13:27.748Z,0.92
2023-01-25T03:14:37.383Z,0.94
2023-01-25T03:15:47.146Z,0.94
2023-01-25T03:16:56.095Z,0.94
2023-01-25T03:18:05.251Z,0.90
2023-01-25T03:19:14.541Z,0.87
2023-01-25T03:22:00.550Z,0.94
2023-01-25T03:23:10.042Z,0.85
2023-01-25T03:24:20.916Z,0.88
2023-01-25T03:25:29.673Z,0.92
2023-01-25T03:26:59.594Z,0.88
2023-01-25T03:28:10.590Z,0.80
2023-01-25T03:29:20.931Z,0.76
2023-01-25T03:30:30.758Z,0.74
2023-01-25T03:31:40.920Z,0.75
2023-01-25T03:32:51.627Z,0.74
2023-01-25T03:34:01.403Z,0.75
2023-01-25T03:35:12.750Z,0.74
2023-01-25T03:36:21.425Z,0.75
2023-01-25T03:37:31.366Z,0.76
2023-01-25T03:38:40.991Z,0.74
2023-01-25T03:39:50.856Z,0.75
2023-01-25T03:41:02.364Z,0.79
2023-01-25T03:43:28.430Z,0.97
2023-01-25T03:44:38.449Z,0.90
2023-01-25T03:45:56.316Z,0.93
2023-01-25T03:47:07.170Z,0.94
2023-01-25T03:48:16.298Z,0.94
2023-01-25T03:49:28.495Z,0.90
2023-01-25T03:50:38.257Z,0.88
2023-01-25T03:51:48.098Z,0.86
2023-01-25T03:53:11.692Z,0.88
2023-01-25T03:54:23.501Z,0.89
2023-01-25T03:56:48.628Z,0.99
2023-01-25T03:57:59.383Z,0.89
2023-01-25T03:59:09.161Z,0.89
2023-01-25T04:00:20.621Z,0.89
2023-01-25T04:01:31.051Z,0.93
2023-01-25T04:02:40.890Z,0.94
2023-01-25T04:03:50.572Z,0.98
2023-01-25T04:05:00.407Z,1.01
2023-01-25T04:06:11.419Z,1.02
2023-01-25T04:07:21.187Z,1.09
2023-01-25T04:08:30.911Z,1.10
2023-01-25T04:09:41.457Z,1.09
2023-01-25T04:12:09.610Z,1.24
2023-01-25T04:13:24.736Z,1.15
2023-01-25T04:14:44.067Z,1.21
2023-01-25T04:15:48.544Z,1.25
2023-01-25T04:16:59.262Z,1.28
2023-01-25T04:18:19.443Z,1.31
2023-01-25T04:19:28.210Z,1.33
2023-01-25T04:20:41.117Z,1.33
2023-01-25T04:21:50.378Z,1.32
2023-01-25T04:23:00.829Z,1.29
2023-01-25T04:24:12.682Z,1.15
2023-01-25T04:25:22.213Z,1.10
2023-01-25T04:26:34.021Z,1.02
2023-01-25T04:27:43.535Z,0.96
2023-01-25T04:28:55.087Z,0.84
2023-01-25T04:31:21.807Z,0.79
2023-01-25T04:32:31.804Z,0.62
2023-01-25T04:33:41.551Z,0.54
2023-01-25T04:34:50.745Z,0.50
2023-01-25T04:36:02.013Z,0.52
2023-01-25T04:37:11.038Z,0.56
2023-01-25T04:38:22.858Z,0.58
2023-01-25T04:39:33.483Z,0.59
2023-01-25T04:40:44.228Z,0.61
2023-01-25T04:41:54.213Z,0.63
2023-01-25T04:43:04.232Z,0.65
2023-01-25T04:44:14.045Z,0.66
2023-01-25T04:45:25.352Z,0.66
2023-01-25T04:46:34.832Z,0.66
2023-01-25T04:47:44.097Z,0.66
2023-01-25T04:48:55.267Z,0.68
2023-01-25T04:50:06.517Z,0.68
2023-01-25T04:51:16.116Z,0.70
2023-01-25T04:52:26.720Z,0.72
2023-01-25T04:53:35.948Z,0.72
2023-01-25T04:56:03.472Z,0.85
2023-01-25T04:57:14.248Z,0.72
2023-01-25T04:58:24.941Z,0.71
2023-01-25T04:59:33.980Z,0.73
2023-01-25T05:00:43.237Z,0.74
2023-01-25T05:01:54.038Z,0.75
2023-01-25T05:03:03.991Z,0.75
2023-01-25T05:04:13.520Z,0.77
2023-01-25T05:05:24.984Z,0.74
2023-01-25T05:06:34.465Z,0.72
2023-01-25T05:07:44.336Z,0.71
2023-01-25T05:08:53.970Z,0.68
2023-01-25T05:10:05.045Z,0.67
2023-01-25T05:11:13.958Z,0.64
2023-01-25T05:12:34.540Z,0.62
2023-01-25T05:13:45.997Z,0.63
2023-01-25T05:14:57.260Z,0.63
2023-01-25T05:16:08.980Z,0.63
2023-01-25T05:17:18.715Z,0.58
2023-01-25T05:18:35.779Z,0.57
2023-01-25T05:19:39.184Z,0.55
2023-01-25T05:20:56.293Z,0.56
2023-01-25T05:22:10.907Z,0.57
2023-01-25T05:24:39.727Z,0.71
2023-01-25T05:26:08.097Z,0.59
2023-01-25T05:27:19.740Z,0.59
2023-01-25T05:29:48.050Z,0.73
2023-01-25T05:30:57.081Z,0.64
2023-01-25T05:32:13.024Z,0.64
2023-01-25T05:33:21.941Z,0.66
2023-01-25T05:34:31.251Z,0.66
2023-01-25T05:35:40.374Z,0.66
2023-01-25T05:36:51.631Z,0.67
2023-01-25T09:46:43.744Z,-0.29
2023-01-25T09:48:01.102Z,-0.28
2023-01-25T09:49:47.358Z,-0.18
2023-01-25T09:51:25.786Z,-0.08
2023-01-25T09:54:00.766Z,0.50
2023-01-25T09:55:19.996Z,0.46
2023-01-25T09:56:38.862Z,0.51
2023-01-25T09:57:51.291Z,0.55
2023-01-25T09:59:06.807Z,0.58
2023-01-25T10:00:35.852Z,0.61
2023-01-25T10:04:48.990Z,0.88
2023-01-25T10:06:02.182Z,0.78
2023-01-25T10:08:49.424Z,0.79
2023-01-25T10:10:09.282Z,0.70
2023-01-25T10:11:26.981Z,0.72
2023-01-25T10:12:38.090Z,0.75
2023-01-25T10:13:47.898Z,0.80
2023-01-25T10:16:26.074Z,0.94
2023-01-25T10:17:38.824Z,0.83
2023-01-25T10:19:08.208Z,0.85
2023-01-25T10:21:42.780Z,0.90
2023-01-25T10:24:30.558Z,0.95
2023-01-25T10:25:43.217Z,0.86
2023-01-25T10:28:44.405Z,0.99
2023-01-25T10:29:57.638Z,0.92
2023-01-25T10:32:35.896Z,1.00
2023-01-25T10:33:47.219Z,0.89
2023-01-25T10:35:00.717Z,0.87
2023-01-25T10:37:35.704Z,0.99
2023-01-25T10:38:49.395Z,0.89
2023-01-25T10:40:05.030Z,0.93
2023-01-25T10:41:21.344Z,1.00
2023-01-25T10:42:34.117Z,1.07
2023-01-25T10:43:42.902Z,1.07
2023-01-25T10:44:51.621Z,1.11
2023-01-25T10:46:02.069Z,1.15
2023-01-25T10:48:36.581Z,1.27
2023-01-25T10:49:55.487Z,1.18
2023-01-25T10:51:06.130Z,1.23
2023-01-25T10:53:39.960Z,1.45
2023-01-25T10:54:51.722Z,1.32
2023-01-25T10:56:13.399Z,1.33
2023-01-25T10:57:22.838Z,1.29
2023-01-25T10:58:39.033Z,1.19
2023-01-25T10:59:52.788Z,1.15
2023-01-25T11:01:03.809Z,1.09
2023-01-25T11:03:54.564Z,1.24
2023-01-25T11:05:31.606Z,1.16
2023-01-25T11:09:39.279Z,1.22
2023-01-25T11:10:51.032Z,1.14
2023-01-25T11:12:12.518Z,1.22
2023-01-25T11:14:52.328Z,1.46
2023-01-25T11:17:34.098Z,1.38
2023-01-25T11:18:54.846Z,1.24
2023-01-25T11:21:36.472Z,1.23
2023-01-25T11:24:12.820Z,1.19
2023-01-25T11:26:49.140Z,1.15
2023-01-25T11:28:14.045Z,1.06
2023-01-25T11:30:31.667Z,1.06
2023-01-25T11:31:54.595Z,1.09
2023-01-25T11:34:26.774Z,1.18
2023-01-25T11:37:10.347Z,1.21
2023-01-25T11:38:23.304Z,1.09
2023-01-25T11:41:37.825Z,1.16
2023-01-25T11:43:00.637Z,1.02
2023-01-25T11:44:19.593Z,1.02
2023-01-25T11:46:03.936Z,1.08
2023-01-25T11:51:55.376Z,1.14
2023-01-25T11:53:28.858Z,1.04
2023-01-25T11:54:56.551Z,1.02
2023-01-25T11:57:42.870Z,1.24
2023-01-25T11:59:11.106Z,1.11
2023-01-25T12:02:33.218Z,1.27
2023-01-25T12:05:23.853Z,1.24
2023-01-25T12:08:00.366Z,1.09
2023-01-25T12:09:35.090Z,1.13
2023-01-25T12:10:53.913Z,1.16
2023-01-25T12:13:54.031Z,1.38
2023-01-25T12:16:59.526Z,1.32
2023-01-25T12:18:30.853Z,1.17
2023-01-25T12:21:46.140Z,1.16
2023-01-25T12:22:59.343Z,1.04
2023-01-25T12:24:33.017Z,1.10
2023-01-25T12:27:55.074Z,1.35
2023-01-25T12:29:08.499Z,1.23
2023-01-25T12:30:39.096Z,1.26
2023-01-25T12:31:57.186Z,1.28
2023-01-25T12:33:16.719Z,1.33
2023-01-25T12:34:41.154Z,1.36
2023-01-25T12:38:53.991Z,1.49
2023-01-25T12:41:54.687Z,1.35
2023-01-25T12:43:07.820Z,1.25
2023-01-25T12:45:58.048Z,1.32
2023-01-25T12:48:54.224Z,1.35
2023-01-25T12:50:25.134Z,1.23
2023-01-25T12:51:39.407Z,1.17
2023-01-25T12:54:25.341Z,1.27
2023-01-25T12:55:35.382Z,1.18
2023-01-25T12:56:50.830Z,1.13
2023-01-25T13:01:26.512Z,1.24
2023-01-25T13:04:27.480Z,1.39
2023-01-25T13:07:04.391Z,1.48
2023-01-25T13:08:33.124Z,1.40
2023-01-25T13:10:16.126Z,1.44
2023-01-25T13:11:40.493Z,1.44
2023-01-25T13:14:21.021Z,1.47
2023-01-25T13:15:45.264Z,1.32
2023-01-25T13:18:33.523Z,1.23
2023-01-25T13:19:42.760Z,1.09
2023-01-25T13:20:54.114Z,1.11
2023-01-25T13:23:40.031Z,1.26
2023-01-25T13:25:09.948Z,1.18
2023-01-25T13:26:29.941Z,1.22
2023-01-25T13:27:38.587Z,1.22
2023-01-25T13:28:49.966Z,1.25
2023-01-25T13:33:00.743Z,1.49
2023-01-25T13:35:48.291Z,1.58
2023-01-25T13:36:57.409Z,1.46
2023-01-25T13:39:53.609Z,1.56
2023-01-25T13:41:17.396Z,1.48
2023-01-25T13:42:30.145Z,1.50
2023-01-25T13:43:42.337Z,1.52
2023-01-25T18:09:40.945Z,-0.49
2023-01-25T18:10:50.337Z,-0.52
2023-01-25T18:11:59.472Z,-0.43
2023-01-25T18:13:09.446Z,-0.30
2023-01-25T18:14:19.682Z,-0.09
2023-01-25T18:15:28.831Z,0.12
2023-01-25T18:16:39.489Z,0.34
2023-01-25T18:17:48.323Z,0.55
2023-01-25T18:19:00.067Z,0.78
2023-01-25T18:21:31.184Z,1.04
2023-01-25T18:24:02.421Z,1.15
2023-01-25T18:26:46.368Z,1.22
2023-01-25T18:27:56.921Z,1.13
2023-01-25T18:29:12.476Z,1.11
2023-01-25T18:30:31.506Z,1.08
2023-01-25T18:31:40.655Z,1.09
2023-01-25T18:32:49.344Z,1.13
2023-01-25T18:33:58.736Z,1.15
2023-01-25T18:35:09.141Z,1.13
2023-01-25T18:36:19.692Z,1.12
2023-01-25T18:37:30.093Z,1.12
2023-01-25T18:38:38.956Z,1.13
2023-01-25T18:41:09.848Z,1.17
2023-01-25T18:42:20.134Z,1.01
2023-01-25T18:44:45.581Z,1.09
2023-01-25T18:47:13.043Z,1.10
2023-01-25T18:49:41.793Z,1.01
2023-01-25T18:50:51.107Z,1.03
2023-01-25T18:52:10.881Z,1.04
2023-01-25T18:53:10.526Z,1.02
2023-01-25T18:54:19.383Z,1.02
2023-01-25T18:56:42.914Z,1.20
2023-01-25T18:59:26.601Z,1.23
2023-01-25T19:01:53.673Z,1.13
2023-01-25T19:04:18.116Z,1.16
2023-01-25T19:05:29.397Z,1.09
2023-01-25T19:06:38.244Z,1.09
2023-01-25T19:07:46.923Z,1.11
2023-01-25T19:08:56.732Z,1.14
2023-01-25T19:10:06.038Z,1.14
2023-01-25T19:11:17.007Z,1.14
2023-01-25T19:12:25.744Z,1.09
2023-01-25T19:13:36.924Z,1.01
2023-01-25T19:14:46.695Z,0.94
2023-01-25T19:17:26.123Z,0.81
2023-01-25T19:18:37.770Z,0.62
2023-01-25T19:19:46.317Z,0.54
2023-01-25T19:20:54.994Z,0.47
2023-01-25T19:22:05.037Z,0.41
2023-01-25T19:23:13.660Z,0.38
2023-01-25T19:24:22.454Z,0.38
2023-01-25T19:25:31.259Z,0.38
2023-01-25T19:26:41.390Z,0.40
2023-01-25T19:27:50.599Z,0.38
2023-01-25T19:29:00.039Z,0.37
2023-01-25T19:31:27.237Z,0.50
2023-01-25T19:32:36.598Z,0.43
2023-01-25T19:33:46.877Z,0.44
2023-01-25T19:34:55.995Z,0.47
2023-01-25T19:36:08.501Z,0.45
2023-01-25T19:37:18.326Z,0.46
2023-01-25T19:38:28.009Z,0.45
2023-01-25T19:39:36.808Z,0.49
2023-01-25T19:40:45.517Z,0.54
2023-01-25T19:41:54.845Z,0.57
2023-01-25T19:43:03.573Z,0.60
2023-01-25T19:44:14.005Z,0.64
2023-01-25T19:45:22.529Z,0.71
2023-01-25T19:46:35.066Z,0.75
2023-01-25T19:47:43.814Z,0.78
2023-01-25T19:48:54.192Z,0.79
2023-01-25T19:51:21.860Z,0.87
2023-01-25T19:52:31.447Z,0.74
2023-01-25T19:53:43.772Z,0.73
2023-01-25T19:54:52.394Z,0.71
2023-01-25T19:56:03.127Z,0.72
2023-01-25T19:57:12.201Z,0.73
2023-01-25T19:59:39.565Z,0.83
2023-01-25T20:00:49.086Z,0.70
2023-01-25T20:01:57.660Z,0.66
2023-01-25T20:03:15.867Z,0.64
2023-01-25T20:04:20.380Z,0.61
2023-01-25T20:05:29.032Z,0.63
2023-01-25T20:06:38.038Z,0.63
2023-01-25T20:07:47.722Z,0.60
2023-01-25T20:08:57.488Z,0.57
2023-01-25T20:10:07.323Z,0.57
2023-01-25T20:11:19.665Z,0.60
2023-01-25T20:12:28.786Z,0.60
2023-01-25T20:13:38.898Z,0.59
2023-01-25T20:14:48.894Z,0.57
2023-01-25T20:17:36.100Z,0.59
2023-01-25T20:18:49.631Z,0.49
2023-01-25T20:19:58.276Z,0.49
2023-01-25T20:21:09.999Z,0.48
2023-01-25T20:22:18.717Z,0.47
2023-01-25T20:23:33.086Z,0.47
2023-01-25T20:24:42.187Z,0.49
2023-01-25T20:26:00.149Z,0.50
2023-01-25T20:27:09.688Z,0.53
2023-01-25T20:28:18.200Z,0.55
2023-01-25T20:29:29.446Z,0.57
2023-01-25T20:30:38.283Z,0.53
2023-01-25T20:31:47.286Z,0.46
2023-01-25T20:32:56.448Z,0.45
2023-01-25T20:34:14.326Z,0.49
2023-01-25T20:35:24.781Z,0.52
2023-01-25T20:36:35.770Z,0.55
2023-01-25T20:37:44.925Z,0.55
2023-01-25T20:40:12.937Z,0.62
2023-01-25T20:41:22.962Z,0.48
2023-01-25T20:42:32.302Z,0.45
2023-01-25T20:43:52.877Z,0.39
2023-01-25T20:45:01.958Z,0.36
2023-01-25T20:46:10.681Z,0.37
2023-01-25T20:47:19.231Z,0.37
2023-01-25T20:48:31.828Z,0.34
2023-01-25T20:49:41.771Z,0.30
2023-01-25T20:51:04.259Z,0.30
2023-01-25T20:52:13.545Z,0.30
2023-01-25T20:53:22.448Z,0.29
2023-01-25T20:54:31.412Z,0.25
2023-01-25T20:55:40.751Z,0.25
2023-01-25T20:56:50.928Z,0.19
2023-01-25T20:59:16.277Z,0.18
2023-01-25T21:00:26.282Z,0.03
2023-01-25T21:02:52.849Z,0.24
2023-01-25T21:04:02.667Z,0.18
2023-01-25T21:05:12.949Z,0.19
2023-01-25T21:06:23.437Z,0.19
2023-01-25T21:07:32.065Z,0.20
2023-01-25T21:08:41.162Z,0.24
2023-01-25T21:09:51.003Z,0.26
2023-01-25T21:11:00.762Z,0.28
2023-01-25T21:12:10.175Z,0.33
2023-01-25T21:13:20.198Z,0.36
2023-01-25T21:14:29.180Z,0.37
2023-01-25T21:15:38.955Z,0.39
2023-01-25T21:16:48.137Z,0.41
2023-01-25T21:17:56.678Z,0.37
2023-01-25T21:19:06.801Z,0.32
2023-01-25T21:20:16.388Z,0.31
2023-01-25T21:21:31.603Z,0.33
2023-01-25T21:23:59.462Z,0.36
2023-01-25T21:25:09.965Z,0.24
2023-01-25T21:26:27.408Z,0.26
2023-01-25T21:27:36.433Z,0.29
2023-01-25T21:28:46.783Z,0.35
2023-01-25T21:29:56.738Z,0.38
2023-01-25T21:32:30.136Z,0.37
2023-01-25T21:33:39.750Z,0.29
2023-01-25T21:34:49.621Z,0.32
2023-01-25T21:36:02.734Z,0.36
2023-01-25T21:37:12.551Z,0.37
2023-01-25T21:38:21.356Z,0.41
2023-01-25T21:39:31.440Z,0.37
2023-01-25T21:40:40.523Z,0.31
2023-01-25T21:41:49.517Z,0.29
2023-01-25T21:42:59.384Z,0.31
2023-01-25T21:44:27.474Z,0.34
2023-01-25T21:47:29.820Z,0.54
2023-01-25T21:48:42.427Z,0.37
2023-01-25T21:50:09.531Z,0.36
2023-01-25T21:51:39.285Z,0.40
2023-01-25T21:52:47.935Z,0.41
2023-01-25T21:54:01.032Z,0.41
2023-01-25T21:55:09.842Z,0.41
2023-01-25T21:56:18.360Z,0.45
2023-01-25T21:57:28.456Z,0.49
2023-01-25T22:00:15.363Z,0.60
2023-01-25T22:01:25.035Z,0.50
2023-01-25T22:02:34.884Z,0.46
2023-01-25T22:03:49.277Z,0.45
2023-01-25T22:04:57.928Z,0.46
2023-01-25T22:06:08.145Z,0.45
2023-01-25T22:07:17.812Z,0.28
2023-01-25T22:08:29.333Z,0.28
2023-01-25T22:09:39.969Z,0.16
2023-01-25T22:10:48.826Z,0.09
2023-01-25T22:11:58.608Z,-0.06
2023-01-25T22:13:08.277Z,-0.08
2023-01-25T22:14:26.163Z,-0.08
2023-01-25T22:15:35.230Z,-0.03
2023-01-25T22:16:45.392Z,0.03
2023-01-25T22:17:54.993Z,0.06
2023-01-25T22:19:04.320Z,0.05
2023-01-25T22:20:14.221Z,0.05
2023-01-25T22:21:27.789Z,0.08
2023-01-25T22:22:37.511Z,0.15
2023-01-25T22:23:47.392Z,0.18
2023-01-25T22:24:56.255Z,0.05
2023-01-25T22:26:07.462Z,0.00
2023-01-25T22:27:38.773Z,-0.07
2023-01-25T22:28:50.520Z,-0.07
2023-01-25T22:29:59.064Z,-0.06
2023-01-25T22:31:08.039Z,-0.15
2023-01-25T22:32:17.808Z,-0.16
2023-01-25T22:33:27.008Z,-0.16
2023-01-25T22:35:52.509Z,-0.19
2023-01-25T22:37:02.279Z,-0.30
2023-01-25T22:38:10.847Z,-0.28
2023-01-25T22:39:20.106Z,-0.26
2023-01-25T22:40:29.438Z,-0.22
2023-01-25T22:41:38.862Z,-0.14
2023-01-25T22:44:03.860Z,0.14
2023-01-25T22:45:13.085Z,0.08
2023-01-25T22:47:41.331Z,0.30
2023-01-25T22:48:53.309Z,0.22
2023-01-25T22:50:02.468Z,0.21
2023-01-25T22:52:40.413Z,0.36
2023-01-25T22:55:04.417Z,0.43
2023-01-25T22:56:20.652Z,0.35
2023-01-25T22:57:30.165Z,0.38
2023-01-25T22:58:41.924Z,0.38
2023-01-25T22:59:51.769Z,0.37
2023-01-25T23:02:17.999Z,0.44
2023-01-25T23:03:27.699Z,0.32
2023-01-25T23:04:37.395Z,0.36
2023-01-25T23:05:46.416Z,0.39
2023-01-25T23:06:58.071Z,0.40
2023-01-25T23:08:07.624Z,0.42
2023-01-25T23:09:17.425Z,0.45
2023-01-25T23:11:42.219Z,0.63
2023-01-25T23:12:54.585Z,0.50
2023-01-25T23:14:25.176Z,0.41
2023-01-25T23:15:34.682Z,0.15
2023-01-25T23:16:44.180Z,0.05
2023-01-25T23:18:11.302Z,0.06
2023-01-25T23:19:20.760Z,0.06
2023-01-25T23:20:34.809Z,0.09
2023-01-25T23:21:45.548Z,0.16
2023-01-25T23:22:55.304Z,0.22
2023-01-25T23:24:05.284Z,0.22
2023-01-25T23:26:40.572Z,0.33
2023-01-25T23:27:51.129Z,0.26
2023-01-25T23:29:00.273Z,0.20
2023-01-25T23:30:12.324Z,0.12
2023-01-25T23:32:42.642Z,0.15
2023-01-25T23:33:52.681Z,-0.12
2023-01-25T23:35:02.466Z,-0.13
2023-01-25T23:37:33.417Z,-0.06
2023-01-25T23:38:44.644Z,-0.15
2023-01-25T23:39:53.280Z,-0.18
2023-01-25T23:42:18.226Z,-0.11
2023-01-25T23:43:27.961Z,-0.16
2023-01-25T23:44:37.458Z,-0.09
2023-01-25T23:45:46.393Z,-0.03
2023-01-25T23:46:56.057Z,-0.02
2023-01-25T23:48:06.067Z,-0.03
2023-01-25T23:50:30.490Z,0.13
2023-01-25T23:51:39.193Z,0.03
2023-01-25T23:52:47.741Z,-0.03
2023-01-25T23:53:58.048Z,-0.07
2023-01-25T23:56:24.072Z,0.04
2023-01-25T23:57:33.213Z,-0.02
2023-01-25T23:58:42.210Z,0.05
2023-01-25T23:59:51.184Z,0.07
